Time;durP1;ratioP1;P1;durP2;ratioP2;P2;SDS_P1;SDS_P2;PMS_P1;PMS_P2;Temp;Humidity;BMP_temperature;BMP_pressure;BME280_temperature;BME280_humidity;BME280_pressure;Samples;Min_cycle;Max_cycle;Signal;HPM_P1;HPM_P2
2022/09/05 00:02:16;;;;;;;;;;;22.50;99.90;;;;;;5045122;28;19958;-77
2022/09/05 00:05:00;;;;;;;;;;;22.60;99.90;;;;;;5068111;28;19920;-74
2022/09/05 00:07:35;;;;;;;;;;;22.60;99.90;;;;;;5067994;28;19928;-74
2022/09/05 00:10:09;;;;;;;;;;;22.60;99.90;;;;;;5067411;28;19923;-75
2022/09/05 00:12:36;;;;;;;;;;;22.50;99.90;;;;;;5079439;28;20274;-75
2022/09/05 00:15:01;;;;;;;;;;;22.50;99.90;;;;;;5080102;28;20357;-76
2022/09/05 00:17:33;;;;;;;;;;;22.50;99.90;;;;;;5051189;28;19908;-75
2022/09/05 00:20:16;;;;;;;;;;;22.50;99.90;;;;;;5065729;28;19909;-74
2022/09/05 00:22:48;;;;;;;;;;;22.50;99.90;;;;;;5065249;28;19912;-74
2022/09/05 00:25:27;;;;;;;;;;;22.50;99.90;;;;;;5047539;28;19927;-74
2022/09/05 00:28:05;;;;;;;;;;;22.40;99.90;;;;;;5065697;28;19908;-73
2022/09/05 00:30:53;;;;;;;;;;;22.40;99.90;;;;;;5065743;28;19909;-73
2022/09/05 00:33:26;;;;;;;;;;;22.30;99.90;;;;;;5063087;28;19916;-75
2022/09/05 00:36:11;;;;;;;;;;;22.30;99.90;;;;;;5063032;28;19912;-75
2022/09/05 00:38:39;;;;;;;;;;;22.30;99.90;;;;;;5061595;28;19966;-76
2022/09/05 00:41:07;;;;;;;;;;;22.20;99.90;;;;;;5059390;28;19959;-78
2022/09/05 00:43:34;;;;;;;;;;;22.20;99.90;;;;;;5059921;28;19967;-74
2022/09/05 00:46:04;;;;;;;;;;;22.10;99.90;;;;;;5063196;28;19916;-76
2022/09/05 00:48:41;;;;;;;;;;;22.10;99.90;;;;;;5060667;28;19917;-76
2022/09/05 00:51:27;;;;;;;;;;;22.10;99.90;;;;;;5062330;28;20002;-76
2022/09/05 00:54:01;;;;;;;;;;;22.10;99.90;;;;;;5054231;28;19944;-76
2022/09/05 00:56:45;;;;;;;;;;;22.00;99.90;;;;;;5060902;28;20006;-75
2022/09/05 00:59:23;;;;;;;;;;;22.00;99.90;;;;;;5063450;28;19908;-75
2022/09/05 01:02:00;;;;;;;;;;;22.00;99.90;;;;;;5064423;28;19909;-76
2022/09/05 01:04:44;;;;;;;;;;;22.00;99.90;;;;;;5048717;28;20078;-75
2022/09/05 01:07:16;;;;;;;;;;;22.00;99.90;;;;;;5063758;28;19917;-74
2022/09/05 01:09:43;;;;;;;;;;;21.90;99.90;;;;;;5063461;28;19967;-74
2022/09/05 01:12:12;;;;;;;;;;;21.90;99.90;;;;;;5070813;28;19938;-76
2022/09/05 01:14:50;;;;;;;;;;;21.80;99.90;;;;;;5064286;28;19912;-77
2022/09/05 01:17:25;;;;;;;;;;;21.80;99.90;;;;;;5062342;28;20327;-74
2022/09/05 01:19:54;;;;;;;;;;;21.90;99.90;;;;;;5062308;28;19908;-75
2022/09/05 01:22:47;;;;;;;;;;;21.90;99.90;;;;;;5063168;28;20157;-75
2022/09/05 01:25:25;;;;;;;;;;;21.80;99.90;;;;;;5071085;28;20031;-73
2022/09/05 01:28:10;;;;;;;;;;;21.80;99.90;;;;;;5065370;28;19923;-76
2022/09/05 01:30:51;;;;;;;;;;;21.80;99.90;;;;;;5063454;28;19992;-77
2022/09/05 01:33:16;;;;;;;;;;;21.80;99.90;;;;;;5063380;28;19927;-76
2022/09/05 01:35:49;;;;;;;;;;;21.80;99.90;;;;;;5063271;28;19908;-76
2022/09/05 01:38:17;;;;;;;;;;;21.70;99.90;;;;;;5064554;28;19908;-74
2022/09/05 01:41:04;;;;;;;;;;;21.80;99.90;;;;;;5063221;28;19912;-76
2022/09/05 01:43:39;;;;;;;;;;;21.80;99.90;;;;;;5064487;28;19999;-77
2022/09/05 01:46:25;;;;;;;;;;;21.80;99.90;;;;;;5062339;28;20468;-78
2022/09/05 01:49:01;;;;;;;;;;;21.70;99.90;;;;;;5059653;28;19955;-76
2022/09/05 01:51:35;;;;;;;;;;;21.80;99.90;;;;;;5063376;28;19909;-75
2022/09/05 01:54:19;;;;;;;;;;;21.80;99.90;;;;;;5062045;28;19913;-75
2022/09/05 01:56:45;;;;;;;;;;;21.80;99.90;;;;;;5065384;28;19915;-75
2022/09/05 01:59:29;;;;;;;;;;;21.70;99.90;;;;;;5067381;28;19917;-75
2022/09/05 02:02:18;;;;;;;;;;;21.70;99.90;;;;;;5065496;28;19912;-76
2022/09/05 02:04:56;;;;;;;;;;;21.80;99.90;;;;;;5040981;28;19920;-77
2022/09/05 02:07:24;;;;;;;;;;;21.70;99.90;;;;;;5048143;28;19928;-76
2022/09/05 02:10:08;;;;;;;;;;;21.80;99.90;;;;;;5062427;28;19909;-77
2022/09/05 02:12:40;;;;;;;;;;;21.80;99.90;;;;;;5064250;28;19913;-75
2022/09/05 02:15:12;;;;;;;;;;;21.70;99.90;;;;;;5063853;28;19916;-76
2022/09/05 02:17:41;;;;;;;;;;;21.70;99.90;;;;;;5046046;28;19916;-76
2022/09/05 02:20:21;;;;;;;;;;;21.70;99.90;;;;;;5061202;28;19909;-76
2022/09/05 02:22:49;;;;;;;;;;;21.60;99.90;;;;;;5062078;28;19912;-75
2022/09/05 02:25:19;;;;;;;;;;;21.60;99.90;;;;;;5062800;28;19912;-75
2022/09/05 02:28:08;;;;;;;;;;;21.70;99.90;;;;;;5063138;28;19936;-76
2022/09/05 02:30:38;;;;;;;;;;;21.70;99.90;;;;;;5044094;28;19962;-77
2022/09/05 02:33:03;;;;;;;;;;;21.60;99.90;;;;;;5061132;28;19921;-78
2022/09/05 02:35:38;;;;;;;;;;;21.70;99.90;;;;;;5046614;28;19916;-75
2022/09/05 02:38:22;;;;;;;;;;;21.70;99.90;;;;;;5046597;28;19932;-76
2022/09/05 02:40:55;;;;;;;;;;;21.70;99.90;;;;;;5065124;28;19954;-75
2022/09/05 02:43:39;;;;;;;;;;;21.80;99.90;;;;;;5074780;28;19915;-75
2022/09/05 02:46:05;;;;;;;;;;;21.70;99.90;;;;;;5064137;28;20309;-75
2022/09/05 02:48:36;;;;;;;;;;;21.70;99.90;;;;;;5062957;28;19936;-75
2022/09/05 02:51:08;;;;;;;;;;;21.70;99.90;;;;;;5060879;28;19916;-76
2022/09/05 02:53:36;;;;;;;;;;;21.70;99.90;;;;;;5061345;28;19923;-75
2022/09/05 02:56:01;;;;;;;;;;;21.80;99.90;;;;;;5064039;28;19916;-74
2022/09/05 02:59:05;;;;;;;;;;;21.80;99.90;;;;;;5063723;28;19916;-73
2022/09/05 03:01:46;;;;;;;;;;;21.70;99.90;;;;;;4996959;28;19972;-75
2022/09/05 03:04:11;;;;;;;;;;;21.70;99.90;;;;;;4995514;28;19910;-75
2022/09/05 03:06:56;;;;;;;;;;;21.70;99.90;;;;;;5035160;28;19922;-74
2022/09/05 03:09:41;;;;;;;;;;;21.70;99.90;;;;;;5066535;28;19926;-74
2022/09/05 03:12:32;;;;;;;;;;;21.60;99.90;;;;;;5064901;28;19956;-75
2022/09/05 03:15:03;;;;;;;;;;;21.70;99.90;;;;;;5064829;28;19909;-75
2022/09/05 03:17:29;;;;;;;;;;;21.60;99.90;;;;;;5066535;28;19971;-76
2022/09/05 03:20:24;;;;;;;;;;;21.50;99.90;;;;;;5065331;28;19912;-75
2022/09/05 03:23:08;;;;;;;;;;;21.50;99.90;;;;;;5068212;28;19939;-75
2022/09/05 03:25:45;;;;;;;;;;;21.50;99.90;;;;;;5069003;28;19962;-75
2022/09/05 03:28:29;;;;;;;;;;;21.60;99.90;;;;;;5041943;28;19909;-74
2022/09/05 03:30:55;;;;;;;;;;;21.60;99.90;;;;;;5065584;28;19954;-74
2022/09/05 03:33:24;;;;;;;;;;;21.50;99.90;;;;;;5064539;28;19912;-75
2022/09/05 03:36:08;;;;;;;;;;;21.50;99.90;;;;;;5065567;28;19909;-75
2022/09/05 03:38:52;;;;;;;;;;;21.50;99.90;;;;;;5065134;28;19909;-76
2022/09/05 03:41:36;;;;;;;;;;;21.50;99.90;;;;;;5067903;28;19908;-74
2022/09/05 03:44:20;;;;;;;;;;;21.50;99.90;;;;;;5063860;28;19924;-74
2022/09/05 03:46:57;;;;;;;;;;;21.40;99.90;;;;;;5065275;28;19923;-74
2022/09/05 03:49:42;;;;;;;;;;;21.40;99.90;;;;;;5067249;28;19915;-74
2022/09/05 03:52:10;;;;;;;;;;;21.30;99.90;;;;;;5063656;28;19919;-75
2022/09/05 03:54:39;;;;;;;;;;;21.30;99.90;;;;;;5052216;28;19908;-75
2022/09/05 03:57:04;;;;;;;;;;;21.30;99.90;;;;;;5066074;28;19954;-75
2022/09/05 03:59:33;;;;;;;;;;;21.30;99.90;;;;;;5049882;28;19916;-75
2022/09/05 04:02:04;;;;;;;;;;;21.30;99.90;;;;;;5062679;28;19908;-75
2022/09/05 04:04:37;;;;;;;;;;;21.30;99.90;;;;;;5062181;28;19924;-76
2022/09/05 04:07:05;;;;;;;;;;;21.30;99.90;;;;;;5088980;28;19923;-74
2022/09/05 04:09:37;;;;;;;;;;;21.30;99.90;;;;;;5071326;28;19942;-75
2022/09/05 04:12:17;;;;;;;;;;;21.30;99.90;;;;;;5074191;28;19916;-75
2022/09/05 04:14:46;;;;;;;;;;;21.30;99.90;;;;;;5073882;28;19998;-74
2022/09/05 04:17:22;;;;;;;;;;;21.20;99.90;;;;;;5067933;28;19908;-75
2022/09/05 04:19:51;;;;;;;;;;;21.20;99.90;;;;;;5076042;28;19938;-74
2022/09/05 04:22:40;;;;;;;;;;;21.30;99.90;;;;;;5076368;28;19916;-75
2022/09/05 04:25:11;;;;;;;;;;;21.30;99.90;;;;;;5055430;28;20011;-74
2022/09/05 04:27:57;;;;;;;;;;;21.30;99.90;;;;;;5077299;28;19913;-74
2022/09/05 04:30:40;;;;;;;;;;;21.20;99.90;;;;;;5076295;28;20328;-75
2022/09/05 04:33:19;;;;;;;;;;;21.20;99.90;;;;;;5081330;28;19912;-75
2022/09/05 04:35:51;;;;;;;;;;;21.20;99.90;;;;;;5069708;28;19908;-75
2022/09/05 04:38:32;;;;;;;;;;;21.20;99.90;;;;;;5079625;28;19908;-74
2022/09/05 04:40:59;;;;;;;;;;;21.20;99.90;;;;;;5066320;28;19911;-74
2022/09/05 04:43:43;;;;;;;;;;;21.20;99.90;;;;;;5068770;28;20417;-75
2022/09/05 04:46:11;;;;;;;;;;;21.20;99.90;;;;;;5070683;28;20577;-74
2022/09/05 04:48:49;;;;;;;;;;;21.40;99.90;;;;;;5069688;28;19912;-74
2022/09/05 04:51:21;;;;;;;;;;;21.50;99.90;;;;;;5063140;28;19912;-75
2022/09/05 04:54:09;;;;;;;;;;;21.60;99.90;;;;;;5069683;28;19912;-76
2022/09/05 04:56:38;;;;;;;;;;;21.60;99.90;;;;;;5063853;28;20454;-74
2022/09/05 04:59:09;;;;;;;;;;;21.60;99.90;;;;;;5071749;28;19904;-74
2022/09/05 05:01:40;;;;;;;;;;;21.50;99.90;;;;;;5067000;28;19912;-73
2022/09/05 05:04:08;;;;;;;;;;;21.30;99.90;;;;;;5070270;28;19908;-75
2022/09/05 05:06:37;;;;;;;;;;;21.20;99.90;;;;;;5079059;28;20007;-76
2022/09/05 05:09:11;;;;;;;;;;;21.10;99.90;;;;;;5070670;28;20289;-77
2022/09/05 05:11:43;;;;;;;;;;;21.10;99.90;;;;;;5074297;28;19911;-75
2022/09/05 05:14:16;;;;;;;;;;;21.20;99.90;;;;;;5073313;28;19936;-74
2022/09/05 05:16:45;;;;;;;;;;;21.30;99.90;;;;;;5067572;28;20016;-75
2022/09/05 05:19:13;;;;;;;;;;;21.40;99.90;;;;;;5076327;28;20306;-76
2022/09/05 05:21:44;;;;;;;;;;;21.40;99.90;;;;;;5067675;28;20026;-75
2022/09/05 05:24:13;;;;;;;;;;;21.50;99.90;;;;;;5070133;28;19920;-75
2022/09/05 05:26:51;;;;;;;;;;;21.60;99.90;;;;;;5069383;28;19961;-74
2022/09/05 05:29:22;;;;;;;;;;;21.50;99.90;;;;;;5062339;28;19917;-75
2022/09/05 05:31:52;;;;;;;;;;;21.50;99.90;;;;;;5067594;28;19909;-68
2022/09/05 05:34:21;;;;;;;;;;;21.60;99.90;;;;;;5057484;28;20343;-69
2022/09/05 05:36:50;;;;;;;;;;;21.50;99.90;;;;;;5045134;28;19948;-69
2022/09/05 05:39:24;;;;;;;;;;;21.50;99.90;;;;;;5063952;28;19952;-69
2022/09/05 05:41:54;;;;;;;;;;;21.60;99.90;;;;;;5067624;28;19909;-69
2022/09/05 05:44:25;;;;;;;;;;;21.60;99.90;;;;;;5065717;28;19916;-69
2022/09/05 05:47:02;;;;;;;;;;;21.70;99.90;;;;;;5067327;28;19916;-69
2022/09/05 05:49:34;;;;;;;;;;;21.90;99.90;;;;;;5064628;28;19908;-68
2022/09/05 05:52:14;;;;;;;;;;;22.10;99.90;;;;;;5069629;28;19909;-68
2022/09/05 05:54:40;;;;;;;;;;;22.20;99.90;;;;;;5065200;28;19912;-68
2022/09/05 05:57:24;;;;;;;;;;;22.20;99.90;;;;;;5070485;28;19958;-70
2022/09/05 06:00:02;;;;;;;;;;;22.30;99.90;;;;;;5070559;28;19913;-67
2022/09/05 06:02:49;;;;;;;;;;;22.50;99.90;;;;;;5069904;28;19916;-68
2022/09/05 06:05:24;;;;;;;;;;;22.60;99.90;;;;;;5068220;28;19926;-68
2022/09/05 06:07:52;;;;;;;;;;;22.70;99.90;;;;;;5074408;28;19914;-68
2022/09/05 06:10:39;;;;;;;;;;;22.70;99.90;;;;;;5053485;28;19919;-68
2022/09/05 06:13:23;;;;;;;;;;;22.70;99.90;;;;;;5085357;28;19924;-69
2022/09/05 06:15:51;;;;;;;;;;;22.80;99.90;;;;;;5071905;28;19909;-68
2022/09/05 06:18:20;;;;;;;;;;;22.90;99.90;;;;;;5066025;28;19931;-68
2022/09/05 06:21:01;;;;;;;;;;;23.00;99.90;;;;;;5081647;28;19908;-68
2022/09/05 06:23:52;;;;;;;;;;;23.10;99.90;;;;;;5064207;28;19909;-68
2022/09/05 06:26:18;;;;;;;;;;;23.10;99.90;;;;;;5080745;28;19912;-69
2022/09/05 06:28:54;;;;;;;;;;;23.10;99.90;;;;;;5072828;28;20465;-68
2022/09/05 06:31:33;;;;;;;;;;;23.10;99.90;;;;;;5069225;28;19951;-68
2022/09/05 06:34:28;;;;;;;;;;;23.20;99.90;;;;;;5051258;28;20434;-70
2022/09/05 06:36:54;;;;;;;;;;;23.30;99.90;;;;;;5053935;28;19931;-62
2022/09/05 06:39:26;;;;;;;;;;;23.30;99.90;;;;;;5069443;28;19908;-65
2022/09/05 06:42:00;;;;;;;;;;;23.50;99.90;;;;;;5073533;28;19915;-69
2022/09/05 06:44:33;;;;;;;;;;;23.80;99.90;;;;;;5072342;28;20438;-69
2022/09/05 06:47:05;;;;;;;;;;;24.00;99.90;;;;;;5066714;28;19908;-71
2022/09/05 06:49:37;;;;;;;;;;;23.90;99.90;;;;;;5056339;28;19957;-69
2022/09/05 06:52:24;;;;;;;;;;;24.00;99.90;;;;;;5073125;28;19908;-70
2022/09/05 06:55:20;;;;;;;;;;;24.10;99.90;;;;;;5071576;28;19909;-70
2022/09/05 06:58:04;;;;;;;;;;;24.20;99.90;;;;;;5073394;28;20015;-69
2022/09/05 07:00:42;;;;;;;;;;;24.30;99.90;;;;;;5071170;28;19912;-70
2022/09/05 07:03:19;;;;;;;;;;;24.30;99.90;;;;;;5090097;28;20303;-68
2022/09/05 07:06:07;;;;;;;;;;;24.40;99.90;;;;;;5071651;28;19909;-70
2022/09/05 07:08:35;;;;;;;;;;;24.50;99.90;;;;;;5075016;28;19915;-67
2022/09/05 07:11:16;;;;;;;;;;;24.60;99.90;;;;;;5093789;28;19904;-71
2022/09/05 07:13:47;;;;;;;;;;;24.70;99.90;;;;;;5056952;28;19919;-68
2022/09/05 07:16:36;;;;;;;;;;;24.70;99.90;;;;;;5076580;28;20381;-70
2022/09/05 07:19:26;;;;;;;;;;;24.90;99.90;;;;;;5063918;28;19904;-70
2022/09/05 07:22:12;;;;;;;;;;;25.00;99.90;;;;;;5072290;28;19908;-69
2022/09/05 07:24:41;;;;;;;;;;;25.10;99.90;;;;;;5083465;28;19912;-68
2022/09/05 07:27:07;;;;;;;;;;;25.30;99.90;;;;;;5074276;28;19908;-69
2022/09/05 07:29:40;;;;;;;;;;;25.50;99.90;;;;;;5075218;28;20319;-69
2022/09/05 07:32:07;;;;;;;;;;;25.60;99.90;;;;;;5073395;28;19904;-69
2022/09/05 07:34:33;;;;;;;;;;;25.60;99.90;;;;;;5085811;28;19908;-68
2022/09/05 07:37:01;;;;;;;;;;;25.70;99.90;;;;;;5077422;28;20007;-69
2022/09/05 07:39:30;;;;;;;;;;;25.90;99.90;;;;;;5066376;28;19909;-72
2022/09/05 07:41:58;;;;;;;;;;;25.90;99.90;;;;;;5082410;28;19904;-68
2022/09/05 07:44:28;;;;;;;;;;;25.90;99.90;;;;;;5077058;28;19908;-68
2022/09/05 07:47:00;;;;;;;;;;;26.10;99.90;;;;;;5076517;28;20432;-69
2022/09/05 07:49:27;;;;;;;;;;;26.10;99.90;;;;;;5068768;28;19908;-69
2022/09/05 07:51:57;;;;;;;;;;;26.30;99.90;;;;;;5070913;28;19909;-68
2022/09/05 07:54:28;;;;;;;;;;;26.30;99.90;;;;;;5058222;28;19911;-69
2022/09/05 07:56:56;;;;;;;;;;;26.20;99.90;;;;;;5080678;28;19975;-69
2022/09/05 07:59:23;;;;;;;;;;;26.20;99.90;;;;;;5082613;28;20400;-69
2022/09/05 08:01:51;;;;;;;;;;;26.20;99.90;;;;;;5072797;28;19909;-69
2022/09/05 08:04:26;;;;;;;;;;;25.90;99.90;;;;;;5068000;28;19919;-70
2022/09/05 08:06:53;;;;;;;;;;;25.80;99.90;;;;;;5073128;28;20278;-71
2022/09/05 08:09:24;;;;;;;;;;;25.90;99.90;;;;;;5072273;28;20302;-69
2022/09/05 08:11:51;;;;;;;;;;;25.80;99.90;;;;;;5061495;28;19920;-69
2022/09/05 08:14:43;;;;;;;;;;;25.80;99.90;;;;;;5061242;28;20006;-68
2022/09/05 08:17:29;;;;;;;;;;;25.70;99.90;;;;;;5058744;28;19922;-70
2022/09/05 08:20:21;;;;;;;;;;;25.70;99.90;;;;;;5063776;28;20011;-71
2022/09/05 08:23:19;;;;;;;;;;;25.80;99.90;;;;;;5064939;28;19919;-69
2022/09/05 08:25:54;;;;;;;;;;;25.70;99.90;;;;;;5043856;28;20018;-69
2022/09/05 08:28:39;;;;;;;;;;;25.70;99.90;;;;;;5081010;28;19912;-70
2022/09/05 08:31:14;;;;;;;;;;;25.80;99.90;;;;;;5082066;28;19904;-70
2022/09/05 08:33:42;;;;;;;;;;;25.90;99.90;;;;;;5069989;28;19912;-69
2022/09/05 08:36:08;;;;;;;;;;;25.90;99.90;;;;;;5072488;28;20361;-69
2022/09/05 08:38:35;;;;;;;;;;;25.90;99.90;;;;;;5071597;28;19908;-69
2022/09/05 08:41:24;;;;;;;;;;;25.70;99.90;;;;;;5069561;28;19912;-70
2022/09/05 08:43:52;;;;;;;;;;;25.40;99.90;;;;;;5061745;28;19912;-67
2022/09/05 08:46:26;;;;;;;;;;;25.20;99.90;;;;;;5071069;28;19908;-71
2022/09/05 08:49:10;;;;;;;;;;;25.10;99.90;;;;;;5076642;28;19916;-70
2022/09/05 08:51:43;;;;;;;;;;;25.10;99.90;;;;;;5069822;28;19954;-71
2022/09/05 08:54:15;;;;;;;;;;;25.20;99.90;;;;;;5067297;28;19931;-70
2022/09/05 08:56:46;;;;;;;;;;;25.20;99.90;;;;;;5071166;28;19916;-71
2022/09/05 08:59:25;;;;;;;;;;;25.20;99.90;;;;;;5069005;28;19912;-71
2022/09/05 09:01:57;;;;;;;;;;;25.30;99.90;;;;;;5069454;28;20293;-72
2022/09/05 09:04:38;;;;;;;;;;;25.40;99.90;;;;;;5053600;28;19909;-71
2022/09/05 09:07:10;;;;;;;;;;;25.50;99.90;;;;;;5072197;28;19904;-70
2022/09/05 09:09:58;;;;;;;;;;;25.50;99.90;;;;;;5071888;28;20008;-71
2022/09/05 09:12:43;;;;;;;;;;;25.50;99.90;;;;;;5060638;28;20372;-72
2022/09/05 09:15:11;;;;;;;;;;;25.50;99.90;;;;;;5082628;28;19916;-70
2022/09/05 09:17:44;;;;;;;;;;;25.70;99.90;;;;;;5067057;28;19914;-71
2022/09/05 09:20:25;;;;;;;;;;;25.80;99.90;;;;;;5078307;28;20426;-72
2022/09/05 09:23:00;;;;;;;;;;;25.90;99.90;;;;;;5071816;28;19923;-71
2022/09/05 09:25:35;;;;;;;;;;;26.00;99.90;;;;;;5075843;28;19916;-72
2022/09/05 09:28:03;;;;;;;;;;;26.10;99.90;;;;;;5082283;28;19905;-70
2022/09/05 09:30:29;;;;;;;;;;;26.20;99.90;;;;;;5068858;28;19999;-71
2022/09/05 09:32:57;;;;;;;;;;;26.20;99.90;;;;;;5070052;28;19963;-72
2022/09/05 09:35:25;;;;;;;;;;;26.40;99.90;;;;;;5076018;28;19974;-71
2022/09/05 09:37:51;;;;;;;;;;;26.40;99.90;;;;;;5069555;28;19910;-71
2022/09/05 09:40:22;;;;;;;;;;;26.20;99.90;;;;;;5051686;28;19915;-71
2022/09/05 09:42:59;;;;;;;;;;;26.10;99.90;;;;;;5079076;28;19913;-71
2022/09/05 09:45:28;;;;;;;;;;;25.90;99.90;;;;;;5058423;28;19931;-70
2022/09/05 09:48:00;;;;;;;;;;;25.90;99.90;;;;;;5064797;28;20007;-72
2022/09/05 09:50:34;;;;;;;;;;;26.00;99.90;;;;;;5066866;28;19920;-72
2022/09/05 09:53:23;;;;;;;;;;;25.90;99.90;;;;;;5069485;28;19919;-71
2022/09/05 09:55:48;;;;;;;;;;;25.80;99.90;;;;;;5071598;28;19908;-71
2022/09/05 09:58:37;;;;;;;;;;;25.90;99.90;;;;;;5079143;28;19912;-72
2022/09/05 10:01:12;;;;;;;;;;;26.00;99.90;;;;;;5080554;28;20343;-72
2022/09/05 10:03:44;;;;;;;;;;;26.10;99.90;;;;;;5069436;28;20353;-71
2022/09/05 10:06:13;;;;;;;;;;;26.20;99.90;;;;;;5073955;28;19917;-71
2022/09/05 10:08:57;;;;;;;;;;;26.10;99.90;;;;;;5066930;28;20010;-71
2022/09/05 10:11:41;;;;;;;;;;;26.00;99.90;;;;;;5073383;28;20641;-72
2022/09/05 10:14:11;;;;;;;;;;;26.00;99.90;;;;;;5090335;28;19919;-71
2022/09/05 10:16:40;;;;;;;;;;;25.90;99.90;;;;;;5077323;28;19908;-71
2022/09/05 10:19:14;;;;;;;;;;;25.80;99.90;;;;;;5079471;28;19978;-71
2022/09/05 10:22:00;;;;;;;;;;;25.70;99.90;;;;;;5076832;28;19970;-72
2022/09/05 10:24:44;;;;;;;;;;;25.80;99.90;;;;;;5034605;28;19912;-71
2022/09/05 10:27:25;;;;;;;;;;;25.90;99.90;;;;;;5072870;28;20323;-72
2022/09/05 10:30:09;;;;;;;;;;;26.00;99.90;;;;;;5073913;28;19944;-71
2022/09/05 10:32:42;;;;;;;;;;;26.10;99.90;;;;;;5073099;28;20300;-73
2022/09/05 10:35:17;;;;;;;;;;;26.10;99.90;;;;;;5071739;28;20015;-73
2022/09/05 10:38:01;;;;;;;;;;;26.10;99.90;;;;;;5071850;28;19912;-71
2022/09/05 10:40:27;;;;;;;;;;;26.00;99.90;;;;;;5071576;28;19912;-70
2022/09/05 10:42:58;;;;;;;;;;;26.00;99.90;;;;;;5074307;28;19915;-71
2022/09/05 10:45:43;;;;;;;;;;;26.20;99.90;;;;;;5070067;28;20010;-71
2022/09/05 10:48:44;;;;;;;;;;;26.30;99.90;;;;;;5055191;28;20888;-72
2022/09/05 10:51:16;;;;;;;;;;;26.30;99.90;;;;;;4994321;28;19985;-70
2022/09/05 10:53:47;;;;;;;;;;;26.30;99.90;;;;;;5060132;28;19908;-72
2022/09/05 10:56:13;;;;;;;;;;;26.50;99.90;;;;;;5075989;28;19912;-72
2022/09/05 10:58:51;;;;;;;;;;;26.50;99.90;;;;;;5088167;28;20380;-72
2022/09/05 11:01:22;;;;;;;;;;;26.70;99.90;;;;;;5093259;28;20270;-72
2022/09/05 11:03:53;;;;;;;;;;;26.50;99.90;;;;;;5079941;28;19912;-72
2022/09/05 11:06:24;;;;;;;;;;;26.60;99.90;;;;;;5066929;28;19904;-72
2022/09/05 11:09:00;;;;;;;;;;;26.60;99.90;;;;;;5057393;28;19912;-72
2022/09/05 11:11:26;;;;;;;;;;;26.70;99.90;;;;;;5073074;28;19999;-71
2022/09/05 11:13:54;;;;;;;;;;;27.00;99.90;;;;;;5073975;28;20007;-72
2022/09/05 11:16:20;;;;;;;;;;;26.90;99.90;;;;;;5073520;28;19905;-71
2022/09/05 11:19:06;;;;;;;;;;;27.20;99.90;;;;;;5067871;28;20252;-72
2022/09/05 11:21:43;;;;;;;;;;;27.40;99.90;;;;;;5072632;28;19920;-72
2022/09/05 11:24:18;;;;;;;;;;;27.60;99.90;;;;;;5072295;28;20344;-73
2022/09/05 11:26:48;;;;;;;;;;;27.60;99.90;;;;;;5073287;28;20058;-72
2022/09/05 11:29:17;;;;;;;;;;;27.60;99.90;;;;;;5070328;28;19916;-72
2022/09/05 11:31:45;;;;;;;;;;;27.80;99.90;;;;;;5081078;28;20025;-72
2022/09/05 11:34:30;;;;;;;;;;;27.80;99.90;;;;;;5073746;28;19919;-72
2022/09/05 11:36:58;;;;;;;;;;;27.80;99.90;;;;;;5073122;28;19912;-71
2022/09/05 11:39:42;;;;;;;;;;;28.00;99.90;;;;;;5072899;28;19920;-71
2022/09/05 11:42:14;;;;;;;;;;;28.00;99.90;;;;;;5073181;28;19939;-71
2022/09/05 11:44:39;;;;;;;;;;;27.60;99.90;;;;;;5066763;28;20004;-71
2022/09/05 11:47:23;;;;;;;;;;;27.30;99.90;;;;;;5073021;28;19948;-72
2022/09/05 11:49:49;;;;;;;;;;;26.90;99.90;;;;;;5073073;28;19901;-71
2022/09/05 11:52:26;;;;;;;;;;;26.70;99.90;;;;;;5073214;28;19958;-71
2022/09/05 11:54:55;;;;;;;;;;;26.50;99.90;;;;;;5070179;28;20363;-72
2022/09/05 11:57:24;;;;;;;;;;;26.20;99.90;;;;;;5069229;28;20378;-70
2022/09/05 12:00:10;;;;;;;;;;;26.30;99.90;;;;;;5079659;28;19909;-71
2022/09/05 12:02:54;;;;;;;;;;;26.30;99.90;;;;;;5068487;28;19922;-72
2022/09/05 12:05:39;;;;;;;;;;;26.30;99.90;;;;;;5072378;28;20304;-71
2022/09/05 12:08:05;;;;;;;;;;;26.50;99.90;;;;;;5072698;28;19936;-72
2022/09/05 12:10:50;;;;;;;;;;;26.40;99.90;;;;;;5071919;28;19959;-73
2022/09/05 12:13:24;;;;;;;;;;;26.40;99.90;;;;;;5067613;28;19920;-72
2022/09/05 12:15:50;;;;;;;;;;;26.30;99.90;;;;;;5074538;28;20326;-72
2022/09/05 12:18:33;;;;;;;;;;;26.30;99.90;;;;;;5080574;28;19913;-70
2022/09/05 12:21:04;;;;;;;;;;;26.20;99.90;;;;;;5070214;28;19909;-72
2022/09/05 12:23:48;;;;;;;;;;;26.00;99.90;;;;;;5070929;28;19980;-72
2022/09/05 12:26:20;;;;;;;;;;;26.10;99.90;;;;;;5086464;28;19909;-72
2022/09/05 12:28:49;;;;;;;;;;;26.10;99.90;;;;;;5074042;28;20325;-72
2022/09/05 12:31:31;;;;;;;;;;;26.10;99.90;;;;;;5062369;28;19983;-73
2022/09/05 12:33:59;;;;;;;;;;;26.20;99.90;;;;;;5079518;28;19947;-72
2022/09/05 12:36:35;;;;;;;;;;;26.30;99.90;;;;;;5078294;28;19908;-70
2022/09/05 12:39:18;;;;;;;;;;;26.20;99.90;;;;;;5077409;28;19908;-72
2022/09/05 12:41:49;;;;;;;;;;;26.20;99.90;;;;;;5065679;28;19905;-72
2022/09/05 12:44:44;;;;;;;;;;;26.10;99.90;;;;;;5069050;28;19909;-73
2022/09/05 12:47:15;;;;;;;;;;;26.20;99.90;;;;;;5059312;28;20416;-72
2022/09/05 12:49:55;;;;;;;;;;;26.10;99.90;;;;;;5060906;28;19912;-72
2022/09/05 12:52:33;;;;;;;;;;;26.30;99.90;;;;;;5066265;28;19904;-70
2022/09/05 12:55:08;;;;;;;;;;;26.50;99.90;;;;;;5073678;28;20016;-71
2022/09/05 12:57:34;;;;;;;;;;;26.50;99.90;;;;;;5084939;28;20396;-72
2022/09/05 13:00:08;;;;;;;;;;;26.60;99.90;;;;;;5053976;28;19912;-71
2022/09/05 13:02:34;;;;;;;;;;;26.50;99.90;;;;;;5076041;28;19908;-72
2022/09/05 13:05:03;;;;;;;;;;;26.50;99.90;;;;;;5054798;28;19908;-71
2022/09/05 13:07:37;;;;;;;;;;;26.60;99.90;;;;;;5072369;28;19904;-70
2022/09/05 13:10:18;;;;;;;;;;;26.60;99.90;;;;;;5072103;28;19994;-72
2022/09/05 13:12:49;;;;;;;;;;;26.60;99.90;;;;;;5063673;28;19920;-70
2022/09/05 13:15:21;;;;;;;;;;;26.90;99.90;;;;;;5065430;28;20301;-71
2022/09/05 13:17:50;;;;;;;;;;;27.00;99.90;;;;;;5069766;28;20038;-72
2022/09/05 13:20:36;;;;;;;;;;;27.10;99.90;;;;;;5067971;28;19918;-70
2022/09/05 13:23:10;;;;;;;;;;;27.30;99.90;;;;;;5072778;28;20362;-70
2022/09/05 13:25:39;;;;;;;;;;;27.40;99.90;;;;;;5070168;28;20293;-71
2022/09/05 13:28:06;;;;;;;;;;;27.50;99.90;;;;;;5068426;28;19982;-71
2022/09/05 13:30:35;;;;;;;;;;;27.40;99.90;;;;;;5075124;28;20401;-71
2022/09/05 13:33:10;;;;;;;;;;;27.40;99.90;;;;;;5073939;28;20411;-72
2022/09/05 13:35:42;;;;;;;;;;;27.40;99.90;;;;;;5078164;28;20566;-71
2022/09/05 13:38:12;;;;;;;;;;;27.50;99.90;;;;;;5069962;28;19904;-71
2022/09/05 13:40:47;;;;;;;;;;;27.50;99.90;;;;;;5078844;28;20085;-73
2022/09/05 13:43:15;;;;;;;;;;;27.40;99.90;;;;;;5069720;28;19908;-72
2022/09/05 13:46:03;;;;;;;;;;;27.40;99.90;;;;;;5068752;28;19950;-71
2022/09/05 13:48:29;;;;;;;;;;;27.40;99.90;;;;;;5066160;28;19908;-72
2022/09/05 13:51:00;;;;;;;;;;;27.30;99.90;;;;;;5077621;28;19912;-72
2022/09/05 13:53:25;;;;;;;;;;;27.40;99.90;;;;;;5050223;28;20011;-71
2022/09/05 13:55:57;;;;;;;;;;;27.30;99.90;;;;;;5078192;28;20042;-73
2022/09/05 13:58:35;;;;;;;;;;;27.20;99.90;;;;;;5077001;28;19963;-73
2022/09/05 14:01:05;;;;;;;;;;;27.10;99.90;;;;;;5077640;28;19909;-71
2022/09/05 14:03:36;;;;;;;;;;;27.20;99.90;;;;;;5055557;28;19915;-69
2022/09/05 14:06:11;;;;;;;;;;;27.30;99.90;;;;;;5074139;28;19998;-68
2022/09/05 14:08:46;;;;;;;;;;;27.40;99.90;;;;;;5080501;28;19920;-69
2022/09/05 14:11:19;;;;;;;;;;;27.50;99.90;;;;;;5066053;28;19963;-69
2022/09/05 14:13:47;;;;;;;;;;;27.60;99.90;;;;;;5066562;28;19932;-70
2022/09/05 14:16:19;;;;;;;;;;;27.50;99.90;;;;;;5063260;28;19920;-68
2022/09/05 14:21:34;;;;;;;;;;;27.20;99.90;;;;;;5061941;28;19950;-69
2022/09/05 14:24:00;;;;;;;;;;;27.20;99.90;;;;;;5063951;28;19971;-69
2022/09/05 14:26:30;;;;;;;;;;;27.10;99.90;;;;;;5061461;28;19923;-70
2022/09/05 14:29:02;;;;;;;;;;;27.00;99.90;;;;;;5062574;28;19913;-68
2022/09/05 14:31:34;;;;;;;;;;;26.90;99.90;;;;;;5062620;28;19919;-70
2022/09/05 14:34:03;;;;;;;;;;;26.90;99.90;;;;;;5062712;28;20087;-70
2022/09/05 14:36:37;;;;;;;;;;;26.90;99.90;;;;;;5061713;28;19985;-68
2022/09/05 14:39:14;;;;;;;;;;;26.90;99.90;;;;;;5065035;28;20296;-70
2022/09/05 14:41:39;;;;;;;;;;;26.90;99.90;;;;;;5063453;28;19916;-69
2022/09/05 14:44:20;;;;;;;;;;;26.90;99.90;;;;;;5064239;28;19916;-69
2022/09/05 14:46:46;;;;;;;;;;;27.00;99.90;;;;;;5062845;28;19908;-68
2022/09/05 14:49:34;;;;;;;;;;;26.90;99.90;;;;;;5061500;28;20366;-69
2022/09/05 14:52:12;;;;;;;;;;;27.00;99.90;;;;;;5061847;28;19915;-69
2022/09/05 14:54:38;;;;;;;;;;;26.90;99.90;;;;;;5060554;28;19942;-69
2022/09/05 14:57:05;;;;;;;;;;;26.80;99.90;;;;;;5060730;28;19970;-70
2022/09/05 14:59:35;;;;;;;;;;;27.00;99.90;;;;;;5061604;28;20355;-67
2022/09/05 15:02:01;;;;;;;;;;;27.00;99.90;;;;;;5066497;28;19909;-68
2022/09/05 15:04:36;;;;;;;;;;;27.00;99.90;;;;;;5065105;28;20262;-69